Drayton, ND (58225)

3:12 PM CDT on August 31, 2015 (GMT -0500)
Grafton Municipal | | Change Station
CLOSE
Current Station
Airport
Location: Grafton,
Elevation: 823 ft
Nearby Weather Stations

Elev 823 ft 48.40 °N, 97.37 °W | Updated -123 second ago

Clear
Clear
81 °F
Feels Like 82 °F
N
10
Wind Variable Wind from West
Gusts 18 mph

Today
High -- | Low -- °F
--% Chance of Precip.
Yesterday
High -- | Low -- °F
Precip. -- in
6:44 AM 8:13 PM
Waning Gibbous, 94% visible
Pressure 29.77 in
Visibility 10.0 miles
Clouds Clear
Heat Index 82 °F
Dew Point 61 °F
Humidity 51%
Rainfall 0.00 in
Snow Depth Not available.
UV 6 out of 12
Pollen 11.50 out of 12
Air Quality Not available.
Flu Activity Not available.
METAR KGAF 312015Z AUTO 26009G16KT 10SM CLR 27/16 A2977 RMK AO2
Pressure 29.77 in
Visibility 10.0 miles
Clouds Clear
Heat Index 82 °F
Dew Point 61 °F
Humidity 51%
Rainfall 0.00 in
Snow Depth Not available.
UV 6 out of 12
Pollen 11.50 out of 12
Air Quality Not available.
Flu Activity Not available.
METAR KGAF 312015Z AUTO 26009G16KT 10SM CLR 27/16 A2977 RMK AO2

10-Day Weather Forecast

×

Almanac

Astronomy

Aug. 31, 2015 Rise Set
Actual Time
Civil Twilight
Nautical Twilight
Astronomical Twilight
Moon
Length of Visible Light
Length of Day
Tomorrow will be .
, % of the Moon is Illuminated

Today's Extremes

State Highs State Lows

Community

WunderPhotos

Upload Photos

1,851,352 photos uploaded!

WunderBlogs® & News

Nearby

Air Quality

  Air Quality AQ Index Pollutant
Not available.

Snow Depth

Station Depth Elevation

Earthquake Activity

City Distance Mag. Time & Date
Minimum magnitude displayed is 2.5.

Coastal Water Temperatures

Place Temperature

Stations

Nearby Weather Stations

Station Location Temp. Windchill Dew Point Humidity Wind Precip. Elev Updated Type